Latest Weather Observations for Glen Innes Airport

IDN60801

Issued at 11:02 pm EDT Wednesday 18 January 2017 (issued every 30 minutes, with the page automatically refreshed every 10 minutes)

About weather observations | Map of weather stations | Latest weather observations for NSW | Other Formats
Station Details ID: 056243 Name: GLEN INNES AIRPORT AWS Lat: -29.68 Lon: 151.69 Height: 1044.3 m
Data from the previous 72 hours. | See also: Recent months at Glen Innes Airport
Date/Time
EDT
Temp
°C
App
Temp
°C
Dew
Point
°C
Rel
Hum
%
Delta-T
°C
Wind Press
QNH
hPa
Press
MSL
hPa
Rain since
9am
mm
Dir  Spd
km/h
Gust
km/h
Spd
kts
Gust
kts
18/11:00pm 21.1 21.2 13.8 63 4.4 SSE 6 9 3 5 1016.8 1011.1 0.0
18/10:30pm 23.2 22.3 13.7 55 5.8 SW 11 17 6 9 1016.8 1011.1 0.0
18/10:00pm 23.6 22.3 13.8 54 6.0 WSW 13 13 7 7 1016.8 1011.1 0.0
18/09:30pm 25.0 22.9 13.5 48 7.0 WSW 17 20 9 11 1016.8 1011.1 0.0
18/09:00pm 24.8 23.2 14.0 51 6.7 WSW 15 19 8 10 1016.6 1010.9 0.0
18/08:30pm 25.1 23.9 13.9 49 6.9 W 13 17 7 9 1016.3 1010.6 0.0
18/08:00pm 26.0 25.0 14.5 49 7.2 W 13 15 7 8 1015.7 1010.0 0.0
18/07:30pm 28.0 26.8 13.9 42 8.8 WSW 13 17 7 9 1015.5 1009.8 0.0
18/07:00pm 27.9 25.0 12.3 38 9.5 WSW 19 26 10 14 1015.2 1009.5 0.0
18/06:30pm 30.2 27.7 13.5 36 10.4 W 19 24 10 13 1015.1 1009.3 0.0
18/06:00pm 30.6 28.4 13.4 35 10.7 WSW 17 24 9 13 1014.7 1009.0 0.0
18/05:30pm 30.6 27.6 13.8 35 10.5 W 22 30 12 16 1015.0 1009.2 0.0
18/05:00pm 30.6 28.0 13.8 35 10.5 W 20 33 11 18 1015.1 1009.3 0.0
18/04:30pm 29.2 26.9 14.6 41 9.2 W 20 30 11 16 1015.7 1010.0 0.0
18/04:00pm 30.7 28.6 16.3 42 9.4 W 22 30 12 16 1016.1 1010.4 0.0
18/03:30pm 30.8 28.1 15.6 39 9.8 W 24 37 13 20 1016.6 1010.9 0.0
18/03:00pm 30.3 26.3 14.0 37 10.2 WSW 28 41 15 22 1017.2 1011.5 0.0
18/02:30pm 29.8 26.8 14.7 39 9.6 WSW 24 35 13 19 1017.5 1011.8 0.0
18/02:00pm 28.9 26.1 15.4 44 8.6 WSW 24 35 13 19 1017.8 1012.2 0.0
18/01:30pm 29.6 26.7 17.1 47 8.2 W 28 39 15 21 1018.2 1012.5 0.0
18/01:00pm 28.3 25.5 17.2 51 7.3 WSW 28 39 15 21 1018.6 1012.9 0.0
18/12:30pm 27.9 25.9 18.3 56 6.4 W 26 35 14 19 1019.1 1013.4 0.0
18/12:00pm 27.6 24.8 17.2 53 6.8 W 28 39 15 21 1019.2 1013.5 0.0
18/11:43am 27.6 24.9 17.5 54 6.6 W 28 46 15 25 1019.4 1013.7 0.0
18/11:30am 27.3 24.7 16.9 53 6.8 W 26 35 14 19 1019.4 1013.7 0.0
18/11:00am 26.5 23.3 17.3 57 6.0 WNW 30 37 16 20 1019.6 1014.0 0.0
18/10:30am 26.3 22.3 16.3 54 6.4 W 32 41 17 22 1019.8 1014.2 0.0
18/10:00am 25.9 23.7 17.0 58 5.8 W 24 35 13 19 1019.9 1014.3 0.0
18/09:30am 24.7 22.8 16.7 61 5.1 WNW 22 33 12 18 1020.0 1014.4 0.0
18/09:00am 23.6 22.3 17.3 67 4.1 WNW 20 28 11 15 1020.0 1014.4 0.0
18/08:30am 22.6 21.4 17.5 73 3.3 NW 20 26 11 14 1020.2 1014.5 0.0
18/08:00am 21.4 20.6 17.2 77 2.7 WNW 17 20 9 11 1020.2 1014.5 0.0
18/07:30am 19.8 20.1 17.0 84 1.8 W 11 13 6 7 1020.2 1014.5 0.0
18/07:00am 17.7 20.1 16.9 95 0.5 CALM 0 0 0 0 1019.8 1014.2 0.0
18/06:30am 14.9 16.1 13.9 94 0.6 CALM 0 0 0 0 1019.5 1013.9 0.0
18/06:00am 15.0 16.2 13.9 93 0.6 CALM 0 0 0 0 1019.2 1013.5 0.0
18/05:30am 15.1 16.4 14.0 93 0.7 CALM 0 0 0 0 1018.7 1013.1 0.0
18/05:00am 15.0 16.2 13.7 92 0.8 CALM 0 0 0 0 1018.4 1012.7 0.0
18/04:30am 15.3 16.6 14.2 93 0.7 CALM 0 0 0 0 1018.2 1012.5 0.0
18/04:00am 14.9 16.0 13.4 91 0.9 CALM 0 0 0 0 1018.1 1012.4 0.0
18/03:30am 15.5 16.8 14.0 91 0.9 CALM 0 0 0 0 1018.3 1012.6 0.0
18/03:00am 15.7 15.9 14.1 90 1.0 SW 6 9 3 5 1018.5 1012.8 0.0
18/02:30am 16.3 16.5 14.7 90 1.0 S 7 7 4 4 1018.7 1013.1 0.0
18/02:00am 16.3 17.8 14.7 90 1.0 CALM 0 0 0 0 1018.9 1013.3 0.0
18/01:30am 17.5 19.2 15.1 86 1.5 CALM 0 0 0 0 1019.2 1013.5 0.0
18/01:00am 17.0 17.5 15.0 88 1.2 SE 6 7 3 4 1019.5 1013.9 0.0
18/12:30am 17.4 17.9 15.0 86 1.5 NE 6 7 3 4 1019.8 1014.2 0.0
18/12:00am 17.6 19.4 15.4 87 1.3 CALM 0 0 0 0 1020.2 1014.5 0.0
 
Date/Time
EDT
Temp
°C
App
Temp
°C
Dew
Point
°C
Rel
Hum
%
Delta-T
°C
Wind Press
QNH
hPa
Press
MSL
hPa
Rain since
9am
mm
Dir  Spd
km/h
Gust
km/h
Spd
kts
Gust
kts
17/11:30pm 18.4 20.1 15.1 81 2.0 CALM 0 0 0 0 1020.5 1014.9 0.0
17/11:00pm 21.6 22.2 15.9 70 3.6 N 7 9 4 5 1020.5 1014.9 0.0
17/10:30pm 21.1 22.1 16.3 74 3.0 NNE 6 9 3 5 1020.5 1014.9 0.0
17/10:00pm 19.9 20.5 15.7 77 2.6 ESE 7 9 4 5 1020.5 1014.9 0.0
17/09:30pm 21.3 22.3 16.3 73 3.2 SE 6 7 3 4 1020.3 1014.6 0.0
17/09:00pm 21.7 22.6 16.2 71 3.5 SSE 6 7 3 4 1020.0 1014.4 0.0
17/08:30pm 23.9 24.5 15.4 59 5.3 W 6 6 3 3 1019.8 1014.2 0.0
17/08:00pm 25.5 25.9 15.2 53 6.5 W 7 7 4 4 1019.8 1014.2 0.0
17/07:30pm 27.5 26.9 14.5 45 8.2 W 11 13 6 7 1019.6 1014.0 0.0
17/07:00pm 28.4 27.3 14.3 42 8.8 WSW 13 17 7 9 1019.4 1013.7 0.0
17/06:30pm 28.7 27.4 13.8 40 9.3 WSW 13 19 7 10 1019.2 1013.5 0.0
17/06:00pm 28.8 27.6 13.9 40 9.3 W 13 20 7 11 1019.2 1013.5 0.0
17/05:30pm 29.1 28.6 16.0 45 8.5 W 13 20 7 11 1019.1 1013.4 0.0
17/05:00pm 29.1 28.3 16.0 45 8.4 WNW 15 20 8 11 1019.2 1013.5 0.0
17/04:30pm 29.0 27.6 15.5 44 8.6 WSW 17 26 9 14 1019.3 1013.6 0.0
17/04:00pm 29.0 28.2 16.2 46 8.3 WSW 15 26 8 14 1019.5 1013.9 0.0
17/03:30pm 28.7 27.7 16.6 48 7.9 WSW 17 24 9 13 1019.7 1014.1 0.0
17/03:00pm 28.6 27.8 17.2 50 7.5 W 17 24 9 13 1020.0 1014.4 0.0
17/02:30pm 28.0 27.8 17.5 52 6.9 SW 15 22 8 12 1020.3 1014.6 0.0
17/02:00pm 27.7 27.7 18.1 56 6.3 W 15 26 8 14 1020.6 1015.0 0.0
17/01:30pm 27.3 26.2 17.2 54 6.6 SW 19 24 10 13 1021.2 1015.5 0.0
17/01:00pm 26.8 26.6 16.7 54 6.5 WSW 13 20 7 11 1021.4 1015.8 0.0
17/12:30pm 25.8 25.2 16.6 56 5.9 W 15 22 8 12 1021.8 1016.2 0.0
17/12:00pm 26.5 26.5 17.3 57 6.0 W 13 22 7 12 1022.0 1016.4 0.0
17/11:30am 26.1 25.8 16.4 55 6.2 W 13 20 7 11 1022.2 1016.6 0.0
17/11:00am 25.6 25.5 15.9 55 6.2 WSW 11 19 6 10 1022.4 1016.8 0.0
17/10:30am 24.8 25.6 17.3 63 4.9 W 9 17 5 9 1022.5 1016.9 0.0
17/10:00am 24.0 24.7 17.0 65 4.5 WSW 9 15 5 8 1022.5 1016.9 0.0
17/09:30am 23.2 24.3 17.0 68 4.0 WNW 7 15 4 8 1022.6 1017.0 0.0
17/09:00am 21.6 22.7 16.6 73 3.2 W 6 7 3 4 1022.6 1017.0 0.0
17/08:30am 21.3 22.5 16.9 76 2.8 E 6 11 3 6 1022.6 1017.0 0.0
17/08:00am 19.8 20.3 16.6 82 2.0 ESE 9 11 5 6 1022.5 1016.9 0.0
17/07:30am 18.5 19.3 16.3 87 1.4 SE 7 11 4 6 1022.3 1016.7 0.0
17/07:00am 17.4 18.3 16.1 92 0.8 SE 6 9 3 5 1021.9 1016.3 0.0
17/06:30am 16.2 16.2 15.2 94 0.6 SE 9 11 5 6 1021.6 1016.0 0.0
17/06:00am 15.8 15.6 14.7 93 0.7 ESE 9 11 5 6 1021.4 1015.8 0.0
17/05:54am 15.7 15.4 14.4 92 0.8 ESE 9 11 5 6 1021.3 1015.7 0.0
17/05:30am 16.4 16.0 15.3 93 0.7 E 11 15 6 8 1021.0 1015.4 0.0
17/05:00am 16.7 16.5 15.7 94 0.6 E 11 13 6 7 1020.6 1015.0 0.0
17/04:50am 16.5 16.2 15.5 94 0.6 E 11 15 6 8 1020.6 1015.0 0.0
17/04:44am 16.2 15.8 15.2 94 0.6 E 11 11 6 6 1020.5 1014.9 0.0
17/04:30am 16.4 16.5 15.4 94 0.6 SE 9 13 5 7 1020.4 1014.8 0.0
17/04:22am 16.4 16.1 15.4 94 0.6 ESE 11 13 6 7 1020.4 1014.8 0.0
17/04:00am 16.3 15.5 15.2 93 0.7 ESE 13 15 7 8 1020.4 1014.8 0.0
17/03:30am 16.7 16.1 15.6 93 0.7 SE 13 13 7 7 1020.5 1014.9 0.0
17/03:00am 17.1 16.5 15.6 91 0.9 ESE 13 13 7 7 1020.6 1015.0 0.0
17/02:30am 17.6 17.5 16.1 91 0.9 SE 11 13 6 7 1020.7 1015.1 0.0
17/02:00am 18.0 18.4 16.3 90 1.1 SE 9 13 5 7 1020.9 1015.3 0.0
17/01:30am 18.6 18.6 17.1 91 1.0 SE 13 15 7 8 1021.0 1015.4 0.0
17/01:00am 18.6 18.9 16.9 90 1.1 ESE 11 15 6 8 1021.0 1015.4 0.0
17/12:56am 18.7 19.0 17.0 90 1.1 SE 11 13 6 7 1021.2 1015.5 0.0
17/12:30am 18.9 19.7 17.2 90 1.1 ESE 9 13 5 7 1021.3 1015.7 0.0
17/12:00am 18.6 18.9 16.9 90 1.1 ESE 11 17 6 9 1021.4 1015.8 0.0
 
Date/Time
EDT
Temp
°C
App
Temp
°C
Dew
Point
°C
Rel
Hum
%
Delta-T
°C
Wind Press
QNH
hPa
Press
MSL
hPa
Rain since
9am
mm
Dir  Spd
km/h
Gust
km/h
Spd
kts
Gust
kts
16/11:52pm 18.6 18.9 17.1 91 1.0 E 11 17 6 9 1021.4 1015.8 0.0
16/11:31pm 18.5 19.4 16.5 88 1.3 E 7 11 4 6 1021.5 1015.9 0.0
16/11:30pm 18.5 19.4 16.5 88 1.3 E 7 11 4 6 1021.5 1015.9 0.0
16/11:00pm 19.2 19.1 17.0 87 1.4 E 13 20 7 11 1021.7 1016.1 0.0
16/10:30pm 19.4 18.9 17.0 86 1.5 E 15 22 8 12 1021.8 1016.2 0.0
16/10:03pm 19.5 18.5 17.5 88 1.3 E 19 24 10 13 1021.7 1016.1 0.0
16/10:00pm 19.4 18.3 17.4 88 1.3 E 19 24 10 13 1021.7 1016.1 0.0
16/09:30pm 18.6 18.7 16.4 87 1.4 ESE 11 13 6 7 1021.4 1015.8 0.0
16/09:00pm 19.5 19.9 16.3 82 2.0 ENE 9 13 5 7 1021.0 1015.4 0.0
16/08:30pm 20.3 20.1 16.7 80 2.3 E 13 15 7 8 1020.9 1015.3 0.0
16/08:00pm 21.6 20.7 16.8 74 3.1 ENE 17 20 9 11 1020.6 1015.0 0.0
16/07:30pm 23.0 22.2 17.0 69 3.9 ENE 17 20 9 11 1020.3 1014.6 0.0
16/07:00pm 24.0 22.7 16.8 64 4.6 ENE 19 20 10 11 1019.7 1014.1 0.0
16/06:30pm 23.9 22.6 16.7 64 4.6 E 19 24 10 13 1019.5 1013.9 0.0
16/06:00pm 25.6 24.6 16.7 58 5.7 E 17 24 9 13 1019.3 1013.6 0.0
16/05:30pm 25.6 24.7 17.8 62 5.1 E 19 24 10 13 1018.9 1013.3 0.0
16/05:00pm 25.7 24.7 17.6 61 5.3 ESE 19 28 10 15 1018.9 1013.3 0.0
16/04:30pm 25.3 24.6 18.2 64 4.7 ESE 19 28 10 15 1018.9 1013.3 0.0
16/04:00pm 26.1 25.1 17.5 59 5.6 ESE 19 26 10 14 1019.2 1013.5 0.0
16/03:30pm 26.5 26.0 17.8 58 5.7 E 17 26 9 14 1019.2 1013.5 0.0
16/03:00pm 25.7 25.8 17.4 60 5.4 E 13 20 7 11 1019.4 1013.7 0.0
16/02:30pm 25.5 25.0 17.9 63 5.0 ESE 17 22 9 12 1019.7 1014.1 0.0
16/02:00pm 24.8 23.5 16.8 61 5.1 ESE 19 26 10 14 1019.9 1014.3 0.0
16/01:30pm 25.0 25.3 18.7 68 4.2 ESE 15 20 8 11 1020.0 1014.4 0.0
16/01:00pm 24.3 24.5 18.5 70 3.8 ESE 15 24 8 13 1020.3 1014.6 0.0
16/12:30pm 23.2 23.2 17.2 69 3.9 E 13 17 7 9 1020.5 1014.9 0.0
16/12:00pm 23.5 22.9 17.5 69 3.9 E 17 26 9 14 1020.6 1015.0 0.0
16/11:55am 23.6 22.8 17.1 67 4.2 E 17 26 9 14 1020.7 1015.1 0.0
16/11:30am 22.3 22.5 17.7 75 3.0 E 13 20 7 11 1020.8 1015.2 0.0
16/11:00am 21.0 20.1 16.8 77 2.7 E 17 22 9 12 1021.0 1015.4 0.0
16/10:30am 20.4 19.1 16.8 80 2.3 E 19 24 10 13 1021.2 1015.5 0.0
16/10:00am 19.8 18.2 16.4 81 2.1 ESE 20 26 11 14 1021.0 1015.4 0.0
16/09:30am 19.2 17.0 15.9 81 2.1 ESE 22 30 12 16 1021.0 1015.4 0.0
16/09:00am 19.0 16.8 15.9 82 1.9 ESE 22 28 12 15 1020.9 1015.3 0.0
16/08:30am 18.9 16.7 16.0 83 1.8 ESE 22 32 12 17 1020.6 1015.0 0.0
16/08:00am 18.6 16.7 15.8 84 1.7 ESE 20 28 11 15 1020.4 1014.8 0.0
16/07:30am 18.0 16.5 16.2 89 1.1 SE 19 24 10 13 1019.8 1014.2 0.0
16/07:00am 17.3 15.5 15.6 90 1.0 ESE 19 24 10 13 1019.5 1013.9 0.0
16/06:30am 16.9 15.0 15.2 90 1.0 ESE 19 24 10 13 1019.4 1013.7 0.0
16/06:00am 16.7 15.2 15.2 91 0.9 ESE 17 22 9 12 1019.1 1013.4 0.0
16/05:30am 16.7 15.2 15.2 91 0.9 ESE 17 22 9 12 1018.7 1013.1 0.0
16/05:00am 16.7 15.1 15.1 90 1.0 ESE 17 22 9 12 1018.4 1012.7 0.0
16/04:30am 16.9 15.3 15.1 89 1.1 ESE 17 22 9 12 1018.3 1012.6 0.0
16/04:00am 17.0 15.5 15.2 89 1.1 ESE 17 20 9 11 1018.1 1012.4 0.0
16/03:30am 17.1 15.6 15.3 89 1.1 E 17 24 9 13 1018.3 1012.6 0.0
16/03:00am 17.1 16.3 15.1 88 1.2 E 13 20 7 11 1018.6 1012.9 0.0
16/02:30am 17.1 14.6 15.1 88 1.2 ESE 22 28 12 15 1018.5 1012.8 0.0
16/02:00am 17.1 12.6 14.9 87 1.3 ESE 32 41 17 22 1018.3 1012.6 0.0
16/01:30am 17.1 13.8 15.1 88 1.2 ESE 26 33 14 18 1018.8 1013.2 0.0
16/01:00am 17.1 13.1 15.1 88 1.2 ESE 30 41 16 22 1018.7 1013.1 0.0
16/12:30am 17.2 13.5 15.0 87 1.3 ESE 28 37 15 20 1019.1 1013.4 0.0
16/12:00am 17.4 14.9 15.2 87 1.3 ESE 22 32 12 17 1019.4 1013.7 0.0
 
Date/Time
EDT
Temp
°C
App
Temp
°C
Dew
Point
°C
Rel
Hum
%
Delta-T
°C
Wind Press
QNH
hPa
Press
MSL
hPa
Rain since
9am
mm
Dir  Spd
km/h
Gust
km/h
Spd
kts
Gust
kts
15/11:30pm 17.3 14.7 14.9 86 1.5 ESE 22 32 12 17 1019.4 1013.7 0.0

Other Formats:

Comma delimited format used in spreadsheet applications
http://www.bom.gov.au/fwo/IDN60801/IDN60801.94588.axf

JavaScript Object Notation format (JSON) in row-major order
http://www.bom.gov.au/fwo/IDN60801/IDN60801.94588.json